Time;durP1;ratioP1;P1;durP2;ratioP2;P2;SDS_P1;SDS_P2;PMS_P1;PMS_P2;Temp;Humidity;BMP_temperature;BMP_pressure;BME280_temperature;BME280_humidity;BME280_pressure;Samples;Min_cycle;Max_cycle;Signal;HPM_P1;HPM_P2
2021/11/23 00:02:01;;;;;;;7.68;5.40;;;;;;;;;;4986391;28;20030;-64
2021/11/23 00:04:46;;;;;;;10.27;6.70;;;;;;;;;;4982526;28;20023;-65
2021/11/23 00:07:31;;;;;;;7.72;5.30;;;;;;;;;;4986996;28;20428;-62
2021/11/23 00:10:17;;;;;;;7.43;5.50;;;;;;;;;;4985042;28;20188;-64
2021/11/23 00:13:02;;;;;;;8.80;5.97;;;;;;;;;;4985852;28;20037;-65
2021/11/23 00:15:47;;;;;;;8.15;4.97;;;;;;;;;;4981190;28;20030;-64
2021/11/23 00:18:33;;;;;;;9.45;6.45;;;;;;;;;;4978399;28;20492;-65
2021/11/23 00:21:18;;;;;;;8.77;5.57;;;;;;;;;;4984553;28;20044;-63
2021/11/23 00:24:03;;;;;;;7.65;5.85;;;;;;;;;;4983613;28;20048;-67
2021/11/23 00:26:49;;;;;;;6.03;5.10;;;;;;;;;;4969515;28;20117;-65
2021/11/23 00:29:34;;;;;;;9.35;6.95;;;;;;;;;;4970702;28;20030;-64
2021/11/23 00:32:21;;;;;;;9.93;7.07;;;;;;;;;;4986057;28;20034;-65
2021/11/23 00:35:06;;;;;;;8.23;5.93;;;;;;;;;;4984134;28;20030;-66
2021/11/23 00:37:52;;;;;;;8.80;5.43;;;;;;;;;;4985788;28;20291;-66
2021/11/23 00:40:37;;;;;;;9.55;5.65;;;;;;;;;;4984605;28;20481;-66
2021/11/23 00:43:22;;;;;;;10.52;7.03;;;;;;;;;;4976709;28;20030;-75
2021/11/23 00:46:08;;;;;;;9.80;7.03;;;;;;;;;;4980768;28;20027;-73
2021/11/23 00:48:53;;;;;;;7.88;5.50;;;;;;;;;;4985539;28;20045;-73
2021/11/23 00:51:38;;;;;;;8.77;5.60;;;;;;;;;;4976957;28;20023;-73
2021/11/23 00:54:24;;;;;;;9.77;5.68;;;;;;;;;;4985867;28;20042;-74
2021/11/23 00:57:09;;;;;;;12.52;6.55;;;;;;;;;;4984307;28;20065;-75
2021/11/23 00:59:54;;;;;;;9.55;5.50;;;;;;;;;;4985057;28;20026;-68
2021/11/23 01:02:39;;;;;;;10.23;6.40;;;;;;;;;;4984013;28;20026;-74
2021/11/23 01:05:25;;;;;;;8.50;6.03;;;;;;;;;;4985405;28;20035;-74
2021/11/23 01:08:11;;;;;;;11.85;5.43;;;;;;;;;;4984665;28;20041;-74
2021/11/23 01:10:56;;;;;;;9.95;5.43;;;;;;;;;;4985616;28;20413;-73
2021/11/23 01:13:43;;;;;;;9.27;6.68;;;;;;;;;;4968258;28;20492;-74
2021/11/23 01:16:28;;;;;;;11.20;6.60;;;;;;;;;;4969983;28;20019;-64
2021/11/23 01:19:16;;;;;;;9.43;5.93;;;;;;;;;;4985517;28;20030;-67
2021/11/23 01:22:02;;;;;;;7.57;5.57;;;;;;;;;;4970644;28;20030;-67
2021/11/23 01:24:47;;;;;;;9.25;5.78;;;;;;;;;;4981659;28;20027;-66
2021/11/23 01:27:33;;;;;;;8.60;5.80;;;;;;;;;;4974490;28;20487;-64
2021/11/23 01:30:18;;;;;;;7.63;5.60;;;;;;;;;;4983530;28;20438;-64
2021/11/23 01:33:03;;;;;;;8.77;6.25;;;;;;;;;;4987893;28;20242;-65
2021/11/23 01:35:49;;;;;;;10.43;6.60;;;;;;;;;;4988285;28;20048;-69
2021/11/23 01:38:34;;;;;;;9.35;6.28;;;;;;;;;;4986934;28;20050;-75
2021/11/23 01:41:20;;;;;;;9.52;6.05;;;;;;;;;;4989192;28;20406;-74
2021/11/23 01:44:09;;;;;;;8.57;6.18;;;;;;;;;;4983277;28;20030;-74
2021/11/23 01:46:54;;;;;;;7.67;5.40;;;;;;;;;;4987911;28;20117;-74
2021/11/23 01:49:39;;;;;;;10.68;6.63;;;;;;;;;;4987651;28;20444;-74
2021/11/23 01:52:24;;;;;;;7.70;5.65;;;;;;;;;;4988518;28;20095;-74
2021/11/23 01:55:10;;;;;;;9.48;6.13;;;;;;;;;;4987844;28;20042;-66
2021/11/23 01:57:55;;;;;;;8.35;5.95;;;;;;;;;;4987778;28;20026;-68
2021/11/23 02:00:41;;;;;;;9.60;7.50;;;;;;;;;;4987907;28;20031;-68
2021/11/23 02:03:26;;;;;;;8.30;5.97;;;;;;;;;;4986258;28;20121;-68
2021/11/23 02:06:12;;;;;;;11.82;6.28;;;;;;;;;;4988229;28;20098;-68
2021/11/23 02:08:57;;;;;;;11.35;7.20;;;;;;;;;;4986701;28;20058;-66
2021/11/23 02:11:42;;;;;;;8.90;6.22;;;;;;;;;;4988173;28;20057;-71
2021/11/23 02:14:28;;;;;;;10.02;7.30;;;;;;;;;;4983672;28;20054;-67
2021/11/23 02:17:14;;;;;;;9.73;7.15;;;;;;;;;;4988016;28;20030;-69
2021/11/23 02:20:01;;;;;;;8.20;5.25;;;;;;;;;;4984891;28;20022;-66
2021/11/23 02:22:47;;;;;;;9.32;5.93;;;;;;;;;;4984682;28;20076;-67
2021/11/23 02:25:32;;;;;;;8.85;6.88;;;;;;;;;;4973291;28;20477;-67
2021/11/23 02:28:17;;;;;;;9.73;6.68;;;;;;;;;;4988343;28;20027;-65
2021/11/23 02:31:05;;;;;;;10.30;6.95;;;;;;;;;;4985718;28;20489;-66
2021/11/23 02:33:50;;;;;;;10.05;6.20;;;;;;;;;;4986492;28;20026;-70
2021/11/23 02:36:36;;;;;;;9.07;6.95;;;;;;;;;;4986280;28;20030;-68
2021/11/23 02:39:21;;;;;;;8.88;6.75;;;;;;;;;;4975560;28;20042;-68
2021/11/23 02:42:07;;;;;;;8.75;6.32;;;;;;;;;;5006454;28;20089;-68
2021/11/23 02:44:52;;;;;;;10.43;7.20;;;;;;;;;;4995908;28;20058;-67
2021/11/23 02:47:38;;;;;;;9.77;7.28;;;;;;;;;;4987641;28;20449;-69
2021/11/23 02:50:24;;;;;;;9.38;6.78;;;;;;;;;;4985915;28;20469;-66
2021/11/23 02:53:09;;;;;;;9.43;6.85;;;;;;;;;;4973966;28;20041;-74
2021/11/23 02:55:54;;;;;;;9.38;6.30;;;;;;;;;;4981401;28;20034;-74
2021/11/23 02:58:40;;;;;;;9.55;6.82;;;;;;;;;;4987422;28;20477;-76
2021/11/23 03:01:27;;;;;;;9.00;6.60;;;;;;;;;;4964946;28;20031;-75
2021/11/23 03:04:15;;;;;;;11.23;7.15;;;;;;;;;;4983481;28;20117;-75
2021/11/23 03:07:00;;;;;;;10.02;7.18;;;;;;;;;;4979517;28;20030;-64
2021/11/23 03:09:46;;;;;;;10.27;6.55;;;;;;;;;;4987372;28;20589;-64
2021/11/23 03:12:31;;;;;;;9.65;6.60;;;;;;;;;;4985878;28;20030;-63
2021/11/23 03:15:17;;;;;;;10.38;6.38;;;;;;;;;;4986578;28;20598;-63
2021/11/23 03:18:03;;;;;;;10.55;6.80;;;;;;;;;;4982687;28;20035;-63
2021/11/23 03:20:50;;;;;;;11.07;7.93;;;;;;;;;;4984675;28;20374;-64
2021/11/23 03:23:36;;;;;;;9.40;6.88;;;;;;;;;;4986231;28;20034;-63
2021/11/23 03:26:21;;;;;;;9.80;6.32;;;;;;;;;;4986107;28;20357;-68
2021/11/23 03:29:06;;;;;;;10.85;6.40;;;;;;;;;;4986648;28;20030;-67
2021/11/23 03:31:51;;;;;;;8.73;6.35;;;;;;;;;;4985508;28;20039;-68
2021/11/23 03:34:38;;;;;;;9.25;7.05;;;;;;;;;;4986405;28;20045;-66
2021/11/23 03:37:24;;;;;;;8.77;6.10;;;;;;;;;;4973337;28;20084;-65
2021/11/23 03:40:10;;;;;;;8.68;6.38;;;;;;;;;;4987033;28;20476;-69
2021/11/23 03:42:55;;;;;;;11.63;7.85;;;;;;;;;;4984494;28;20649;-66
2021/11/23 03:45:41;;;;;;;11.75;7.45;;;;;;;;;;4985803;28;20040;-66
2021/11/23 03:48:26;;;;;;;11.18;7.03;;;;;;;;;;4985557;28;20083;-66
2021/11/23 03:51:12;;;;;;;11.75;7.55;;;;;;;;;;4958632;28;20558;-66
2021/11/23 03:53:57;;;;;;;10.70;8.32;;;;;;;;;;4985376;28;20046;-67
2021/11/23 03:56:42;;;;;;;10.18;7.07;;;;;;;;;;4986579;28;20374;-68
2021/11/23 03:59:28;;;;;;;10.65;7.78;;;;;;;;;;4981505;28;20026;-68
2021/11/23 04:02:14;;;;;;;11.00;7.05;;;;;;;;;;5027480;28;20028;-70
2021/11/23 04:04:59;;;;;;;9.77;7.13;;;;;;;;;;4987992;28;20057;-63
2021/11/23 04:07:44;;;;;;;10.38;7.40;;;;;;;;;;4977622;28;20038;-66
2021/11/23 04:10:30;;;;;;;11.20;7.30;;;;;;;;;;4958517;28;20396;-67
2021/11/23 04:13:18;;;;;;;12.75;8.23;;;;;;;;;;4984922;28;20049;-68
2021/11/23 04:16:03;;;;;;;10.98;6.88;;;;;;;;;;5042652;28;20538;-68
2021/11/23 04:18:48;;;;;;;11.85;8.20;;;;;;;;;;4981597;28;20037;-66
2021/11/23 04:21:33;;;;;;;11.65;7.43;;;;;;;;;;4996481;28;20483;-66
2021/11/23 04:24:19;;;;;;;10.70;7.00;;;;;;;;;;4980406;28;20042;-64
2021/11/23 04:27:04;;;;;;;7.75;5.90;;;;;;;;;;5005792;28;20038;-63
2021/11/23 04:29:49;;;;;;;13.88;8.35;;;;;;;;;;4984880;28;20034;-66
2021/11/23 04:32:35;;;;;;;13.65;8.27;;;;;;;;;;4972461;28;20061;-64
2021/11/23 04:35:20;;;;;;;11.55;8.18;;;;;;;;;;4971553;28;20037;-63
2021/11/23 04:38:06;;;;;;;10.82;8.00;;;;;;;;;;4985679;28;20085;-66
2021/11/23 04:40:51;;;;;;;13.82;7.32;;;;;;;;;;4970595;28;20027;-70
2021/11/23 04:43:37;;;;;;;10.82;6.97;;;;;;;;;;4986275;28;20030;-63
2021/11/23 04:46:22;;;;;;;10.30;7.32;;;;;;;;;;4957776;28;20469;-64
2021/11/23 04:49:08;;;;;;;9.75;6.82;;;;;;;;;;4973464;28;20079;-62
2021/11/23 04:51:53;;;;;;;12.10;8.18;;;;;;;;;;4984113;28;20056;-65
2021/11/23 04:54:38;;;;;;;11.95;7.13;;;;;;;;;;4985337;28;20034;-65
2021/11/23 04:57:24;;;;;;;10.95;8.50;;;;;;;;;;4991382;28;20447;-65
2021/11/23 05:00:11;;;;;;;11.05;8.20;;;;;;;;;;4991135;28;20053;-72
2021/11/23 05:02:56;;;;;;;11.20;8.13;;;;;;;;;;4990519;28;20038;-68
2021/11/23 05:05:41;;;;;;;11.35;7.88;;;;;;;;;;4990922;28;20027;-68
2021/11/23 05:08:27;;;;;;;10.63;7.30;;;;;;;;;;4991525;28;20026;-69
2021/11/23 05:11:12;;;;;;;12.85;7.82;;;;;;;;;;4990209;28;20022;-67
2021/11/23 05:13:57;;;;;;;11.85;7.20;;;;;;;;;;4989769;28;20473;-67
2021/11/23 05:16:43;;;;;;;9.88;7.10;;;;;;;;;;4990180;28;20100;-65
2021/11/23 05:19:28;;;;;;;9.75;7.07;;;;;;;;;;4977510;28;20023;-68
2021/11/23 05:22:13;;;;;;;12.07;7.80;;;;;;;;;;4991126;28;20411;-68
2021/11/23 05:24:59;;;;;;;10.88;6.85;;;;;;;;;;4983662;28;20050;-68
2021/11/23 05:27:44;;;;;;;13.57;8.68;;;;;;;;;;4981273;28;20034;-67
2021/11/23 05:30:29;;;;;;;12.10;8.05;;;;;;;;;;4976959;28;20092;-66
2021/11/23 05:33:15;;;;;;;12.15;7.80;;;;;;;;;;4990364;28;20083;-69
2021/11/23 05:36:00;;;;;;;9.90;6.88;;;;;;;;;;4991757;28;20140;-67
2021/11/23 05:38:45;;;;;;;11.80;7.85;;;;;;;;;;4976778;28;20049;-65
2021/11/23 05:41:31;;;;;;;24.88;16.85;;;;;;;;;;4991695;28;20054;-65
2021/11/23 05:44:16;;;;;;;34.63;23.13;;;;;;;;;;4994356;28;20113;-65
2021/11/23 05:47:02;;;;;;;13.25;8.88;;;;;;;;;;4996558;28;20080;-65
2021/11/23 05:49:47;;;;;;;10.85;7.32;;;;;;;;;;4986216;28;20109;-63
2021/11/23 05:52:32;;;;;;;12.07;7.18;;;;;;;;;;4990477;28;20127;-67
2021/11/23 05:55:18;;;;;;;11.90;7.78;;;;;;;;;;4990908;28;20034;-63
2021/11/23 05:58:03;;;;;;;10.32;7.05;;;;;;;;;;4990218;28;20034;-64
2021/11/23 06:00:49;;;;;;;11.27;6.90;;;;;;;;;;4984561;28;20034;-67
2021/11/23 06:03:34;;;;;;;11.57;7.57;;;;;;;;;;4990470;28;20099;-64
2021/11/23 06:06:19;;;;;;;12.68;8.70;;;;;;;;;;4991092;28;20066;-62
2021/11/23 06:09:08;;;;;;;11.95;8.32;;;;;;;;;;4979397;28;20030;-64
2021/11/23 06:11:53;;;;;;;12.13;8.70;;;;;;;;;;4981151;28;20132;-67
2021/11/23 06:14:39;;;;;;;14.63;8.75;;;;;;;;;;4975255;28;20039;-62
2021/11/23 06:17:27;;;;;;;10.90;7.05;;;;;;;;;;4987868;28;20037;-66
2021/11/23 06:20:12;;;;;;;10.52;7.40;;;;;;;;;;4985255;28;20038;-68
2021/11/23 06:22:58;;;;;;;15.85;7.43;;;;;;;;;;4981746;28;20026;-63
2021/11/23 06:25:45;;;;;;;11.85;6.97;;;;;;;;;;4986773;28;20042;-64
2021/11/23 06:28:31;;;;;;;12.13;7.57;;;;;;;;;;4986632;28;20022;-65
2021/11/23 06:31:16;;;;;;;11.45;7.68;;;;;;;;;;4986972;28;20041;-73
2021/11/23 06:34:07;;;;;;;11.15;7.63;;;;;;;;;;4986499;28;20034;-65
2021/11/23 06:36:52;;;;;;;14.38;9.57;;;;;;;;;;4986969;28;20057;-67
2021/11/23 06:39:38;;;;;;;13.60;9.32;;;;;;;;;;4986206;28;20427;-67
2021/11/23 06:42:23;;;;;;;13.32;9.07;;;;;;;;;;4995955;28;20035;-63
2021/11/23 06:45:09;;;;;;;14.13;8.35;;;;;;;;;;4988674;28;20030;-64
2021/11/23 06:47:55;;;;;;;13.90;9.70;;;;;;;;;;4985337;28;20706;-65
2021/11/23 06:50:40;;;;;;;14.93;9.50;;;;;;;;;;4985616;28;20107;-67
2021/11/23 06:53:26;;;;;;;12.90;8.75;;;;;;;;;;4970126;28;20054;-68
2021/11/23 06:56:11;;;;;;;11.80;8.48;;;;;;;;;;4985223;28;20524;-65
2021/11/23 06:58:56;;;;;;;15.15;10.38;;;;;;;;;;4960911;28;20144;-65
2021/11/23 07:01:42;;;;;;;13.55;8.55;;;;;;;;;;4978580;28;20477;-63
2021/11/23 07:04:27;;;;;;;10.88;7.47;;;;;;;;;;4985512;28;20022;-63
2021/11/23 07:07:12;;;;;;;12.48;9.77;;;;;;;;;;4985636;28;20034;-72
2021/11/23 07:09:58;;;;;;;13.73;9.73;;;;;;;;;;4971535;28;20022;-69
2021/11/23 07:12:43;;;;;;;14.38;10.10;;;;;;;;;;4967752;28;20022;-70
2021/11/23 07:15:28;;;;;;;11.98;8.77;;;;;;;;;;4985182;28;20038;-69
2021/11/23 07:18:14;;;;;;;14.68;10.05;;;;;;;;;;4959251;28;20105;-70
2021/11/23 07:20:59;;;;;;;14.05;9.45;;;;;;;;;;4995708;28;20256;-69
2021/11/23 07:23:44;;;;;;;12.73;9.00;;;;;;;;;;4984431;28;20031;-71
2021/11/23 07:26:31;;;;;;;14.52;10.30;;;;;;;;;;4993269;28;20082;-71
2021/11/23 07:29:16;;;;;;;17.42;10.18;;;;;;;;;;4986428;28;20102;-66
2021/11/23 07:32:02;;;;;;;14.73;10.10;;;;;;;;;;4994232;28;20034;-67
2021/11/23 07:34:47;;;;;;;15.10;10.25;;;;;;;;;;4970071;28;20034;-64
2021/11/23 07:37:40;;;;;;;15.70;11.05;;;;;;;;;;5005560;28;20075;-68
2021/11/23 07:40:26;;;;;;;15.18;9.77;;;;;;;;;;5019895;28;20393;-65
2021/11/23 07:43:11;;;;;;;16.98;10.20;;;;;;;;;;4984379;28;20109;-67
2021/11/23 07:45:56;;;;;;;12.32;8.93;;;;;;;;;;4984943;28;20056;-65
2021/11/23 07:48:42;;;;;;;13.15;8.93;;;;;;;;;;4992369;28;20030;-64
2021/11/23 07:51:27;;;;;;;14.73;10.13;;;;;;;;;;4983714;28;20026;-60
2021/11/23 07:54:14;;;;;;;17.05;11.52;;;;;;;;;;5024651;28;20121;-63
2021/11/23 07:56:59;;;;;;;16.35;10.70;;;;;;;;;;5016401;28;20112;-64
2021/11/23 07:59:45;;;;;;;15.43;9.15;;;;;;;;;;4972497;28;20034;-65
2021/11/23 08:02:30;;;;;;;13.77;9.73;;;;;;;;;;4980487;28;20030;-64
2021/11/23 08:05:15;;;;;;;15.43;11.43;;;;;;;;;;4978292;28;20050;-62
2021/11/23 08:08:01;;;;;;;15.30;10.10;;;;;;;;;;4974148;28;20022;-64
2021/11/23 08:10:46;;;;;;;17.70;11.25;;;;;;;;;;4980778;28;20033;-63
2021/11/23 08:13:32;;;;;;;15.13;10.57;;;;;;;;;;4981265;28;20027;-62
2021/11/23 08:16:17;;;;;;;16.83;12.27;;;;;;;;;;4986082;28;20473;-64
2021/11/23 08:19:03;;;;;;;13.55;9.88;;;;;;;;;;4985011;28;20119;-62
2021/11/23 08:21:48;;;;;;;16.80;11.80;;;;;;;;;;4980381;28;20033;-66
2021/11/23 08:24:34;;;;;;;17.75;11.32;;;;;;;;;;4980304;28;20516;-64
2021/11/23 08:27:19;;;;;;;17.95;12.02;;;;;;;;;;4982896;28;20187;-63
2021/11/23 08:30:06;;;;;;;13.90;10.45;;;;;;;;;;4970227;28;20027;-65
2021/11/23 08:32:51;;;;;;;16.73;11.48;;;;;;;;;;4972995;28;20034;-62
2021/11/23 08:35:37;;;;;;;19.73;12.93;;;;;;;;;;4971172;28;20068;-61
2021/11/23 08:38:22;;;;;;;15.57;11.60;;;;;;;;;;4985236;28;20056;-67
2021/11/23 08:41:09;;;;;;;19.30;12.15;;;;;;;;;;4981663;28;20030;-65
2021/11/23 08:43:54;;;;;;;14.13;10.80;;;;;;;;;;4984393;28;20129;-65
2021/11/23 08:46:40;;;;;;;17.65;12.35;;;;;;;;;;5028436;28;20372;-69
2021/11/23 08:49:25;;;;;;;19.52;14.32;;;;;;;;;;5041177;28;20030;-66
2021/11/23 08:52:12;;;;;;;19.85;13.57;;;;;;;;;;4985206;28;20438;-67
2021/11/23 08:54:57;;;;;;;19.10;12.45;;;;;;;;;;4979867;28;20481;-68
2021/11/23 08:57:42;;;;;;;18.77;11.18;;;;;;;;;;4981150;28;20022;-63
2021/11/23 09:00:28;;;;;;;19.33;13.30;;;;;;;;;;4976387;28;20474;-73
2021/11/23 09:03:13;;;;;;;18.48;12.35;;;;;;;;;;4985200;28;20543;-75
2021/11/23 09:05:58;;;;;;;21.70;13.10;;;;;;;;;;4978605;28;20435;-73
2021/11/23 09:08:54;;;;;;;19.83;13.82;;;;;;;;;;4988922;28;20031;-78
2021/11/23 09:11:39;;;;;;;18.27;12.60;;;;;;;;;;4980898;28;20041;-80
2021/11/23 09:14:25;;;;;;;18.77;13.13;;;;;;;;;;4977225;28;20409;-75
2021/11/23 09:17:10;;;;;;;19.65;13.63;;;;;;;;;;4966804;28;20585;-64
2021/11/23 09:19:55;;;;;;;16.50;12.60;;;;;;;;;;4984755;28;21419;-64
2021/11/23 09:22:41;;;;;;;17.10;11.57;;;;;;;;;;4977556;28;20034;-63
2021/11/23 09:25:27;;;;;;;16.85;12.02;;;;;;;;;;4968296;28;20030;-65
2021/11/23 09:28:12;;;;;;;15.70;10.93;;;;;;;;;;4985051;28;20431;-65
2021/11/23 09:30:57;;;;;;;15.20;11.02;;;;;;;;;;4982711;28;20109;-63
2021/11/23 09:33:43;;;;;;;17.50;12.82;;;;;;;;;;4985417;28;20034;-64
2021/11/23 09:36:28;;;;;;;17.00;12.00;;;;;;;;;;4974870;28;20534;-69
2021/11/23 09:39:13;;;;;;;15.77;11.20;;;;;;;;;;4970634;28;20042;-64
2021/11/23 09:41:58;;;;;;;15.45;11.00;;;;;;;;;;4970812;28;20228;-62
2021/11/23 09:44:44;;;;;;;16.15;10.40;;;;;;;;;;5020968;28;20026;-63
2021/11/23 09:47:30;;;;;;;14.70;10.38;;;;;;;;;;4990535;28;20030;-62
2021/11/23 09:50:15;;;;;;;17.45;10.73;;;;;;;;;;4996857;28;20027;-65
2021/11/23 09:53:00;;;;;;;17.95;10.70;;;;;;;;;;4983998;28;20106;-63
2021/11/23 09:55:47;;;;;;;15.38;11.30;;;;;;;;;;4986207;28;20042;-68
2021/11/23 09:58:33;;;;;;;15.40;12.13;;;;;;;;;;4974170;28;20026;-66
2021/11/23 10:01:18;;;;;;;13.80;9.88;;;;;;;;;;4993248;28;20030;-66
2021/11/23 10:04:07;;;;;;;14.23;9.98;;;;;;;;;;4993223;28;20087;-67
2021/11/23 10:06:56;;;;;;;13.48;9.93;;;;;;;;;;4976874;28;20055;-68
2021/11/23 10:09:42;;;;;;;14.00;10.65;;;;;;;;;;4982868;28;20035;-70
2021/11/23 10:12:27;;;;;;;14.25;10.20;;;;;;;;;;4973202;28;20492;-62
2021/11/23 10:15:17;;;;;;;13.68;9.57;;;;;;;;;;4974337;28;20035;-62
2021/11/23 10:18:11;;;;;;;13.98;9.30;;;;;;;;;;4983844;28;20027;-63
2021/11/23 10:20:57;;;;;;;13.07;9.77;;;;;;;;;;4986633;28;20134;-64
2021/11/23 10:23:46;;;;;;;15.30;10.55;;;;;;;;;;4987171;28;20079;-64
2021/11/23 10:26:31;;;;;;;13.73;9.52;;;;;;;;;;4984395;28;20083;-66
2021/11/23 10:29:17;;;;;;;17.58;9.82;;;;;;;;;;4986621;28;20034;-66
2021/11/23 10:32:12;;;;;;;13.88;9.13;;;;;;;;;;4981578;28;20781;-64
2021/11/23 10:34:57;;;;;;;13.90;9.05;;;;;;;;;;4986231;28;20520;-62
2021/11/23 10:37:43;;;;;;;13.25;9.00;;;;;;;;;;4987671;28;20043;-63
2021/11/23 10:40:29;;;;;;;10.98;8.15;;;;;;;;;;4986911;28;20023;-66
2021/11/23 10:43:17;;;;;;;11.40;8.13;;;;;;;;;;4987587;28;20037;-65
2021/11/23 10:46:03;;;;;;;14.05;8.13;;;;;;;;;;4987479;28;20034;-63
2021/11/23 10:48:57;;;;;;;10.05;7.72;;;;;;;;;;4973887;28;20029;-63
2021/11/23 10:51:42;;;;;;;27.73;25.67;;;;;;;;;;4988018;28;20030;-63
2021/11/23 10:54:32;;;;;;;1999.90;999.90;;;;;;;;;;4972224;28;20087;-65
2021/11/23 10:57:17;;;;;;;33.13;30.52;;;;;;;;;;4985879;28;20025;-64
2021/11/23 11:00:03;;;;;;;15.05;12.77;;;;;;;;;;4985455;28;20084;-65
2021/11/23 11:02:50;;;;;;;13.85;8.70;;;;;;;;;;4987183;28;20272;-62
2021/11/23 11:05:37;;;;;;;10.65;8.15;;;;;;;;;;4992571;28;20030;-67
2021/11/23 11:08:23;;;;;;;9.20;7.20;;;;;;;;;;4985805;28;20026;-64
2021/11/23 11:11:15;;;;;;;11.35;10.15;;;;;;;;;;4980313;28;20450;-70
2021/11/23 11:14:01;;;;;;;14.73;13.48;;;;;;;;;;4981230;28;20074;-71
2021/11/23 11:16:46;;;;;;;35.83;33.45;;;;;;;;;;5004564;28;20045;-75
2021/11/23 11:19:41;;;;;;;1999.90;999.90;;;;;;;;;;4979601;28;20065;-68
2021/11/23 11:22:26;;;;;;;1999.90;999.90;;;;;;;;;;4996624;28;20027;-67
2021/11/23 11:25:30;;;;;;;16.17;6.38;;;;;;;;;;4975759;28;20044;-66
2021/11/23 11:28:15;;;;;;;7.93;5.75;;;;;;;;;;4981698;28;20039;-61
2021/11/23 11:31:06;;;;;;;9.27;6.20;;;;;;;;;;4985247;28;20363;-71
2021/11/23 11:34:11;;;;;;;9.15;6.45;;;;;;;;;;4986930;28;20034;-70
2021/11/23 11:36:56;;;;;;;1999.90;999.90;;;;;;;;;;4979904;28;20501;-68
2021/11/23 11:39:43;;;;;;;1999.90;999.90;;;;;;;;;;4983450;28;20030;-69
2021/11/23 11:42:28;;;;;;;1999.90;999.90;;;;;;;;;;4982956;28;20105;-70
2021/11/23 11:45:14;;;;;;;1999.90;999.90;;;;;;;;;;4989573;28;20052;-68
2021/11/23 11:47:59;;;;;;;1999.90;999.90;;;;;;;;;;4982642;28;20362;-71
2021/11/23 11:50:55;;;;;;;17.55;16.10;;;;;;;;;;4981165;28;20038;-72
2021/11/23 11:53:42;;;;;;;12.25;9.05;;;;;;;;;;4980562;28;20034;-70
2021/11/23 11:56:38;;;;;;;8.07;6.10;;;;;;;;;;4981188;28;20038;-72
2021/11/23 11:59:24;;;;;;;9.10;5.80;;;;;;;;;;4989298;28;20025;-78
2021/11/23 12:02:18;;;;;;;7.57;5.75;;;;;;;;;;4977732;28;20027;-75
2021/11/23 12:05:04;;;;;;;8.07;5.40;;;;;;;;;;4983513;28;20465;-66
2021/11/23 12:07:51;;;;;;;9.20;5.93;;;;;;;;;;4992214;28;20413;-65
2021/11/23 12:10:45;;;;;;;8.25;5.45;;;;;;;;;;4973373;28;20592;-64
2021/11/23 12:13:52;;;;;;;8.52;5.25;;;;;;;;;;4980594;28;20087;-66
2021/11/23 12:16:42;;;;;;;10.63;5.22;;;;;;;;;;4984473;28;20481;-63
2021/11/23 12:20:10;;;;;;;10.15;5.65;;;;;;;;;;4977415;28;20046;-63
2021/11/23 12:23:13;;;;;;;7.80;5.80;;;;;;;;;;4954332;28;20309;-65
2021/11/23 12:25:59;;;;;;;10.15;5.70;;;;;;;;;;4935217;29;20054;-65
2021/11/23 12:29:12;;;;;;;11.68;6.10;;;;;;;;;;4945182;28;20476;-64
2021/11/23 12:31:59;;;;;;;8.70;5.00;;;;;;;;;;5014656;28;20030;-65
2021/11/23 12:34:47;;;;;;;7.22;4.75;;;;;;;;;;4947486;28;20398;-66
2021/11/23 12:37:36;;;;;;;7.90;5.15;;;;;;;;;;4959599;28;20112;-66
2021/11/23 12:40:25;;;;;;;7.85;4.80;;;;;;;;;;4936826;28;20038;-71
2021/11/23 12:43:11;;;;;;;8.90;4.70;;;;;;;;;;4955094;28;20047;-66
2021/11/23 12:45:56;;;;;;;7.65;4.35;;;;;;;;;;4944986;28;20454;-65
2021/11/23 12:48:42;;;;;;;6.90;4.03;;;;;;;;;;4940561;28;20030;-64
2021/11/23 12:51:30;;;;;;;6.35;4.00;;;;;;;;;;4947019;28;20027;-63
2021/11/23 12:54:15;;;;;;;9.73;5.28;;;;;;;;;;4994178;28;20038;-69
2021/11/23 12:57:11;;;;;;;9.82;4.72;;;;;;;;;;4996541;28;20034;-72
2021/11/23 12:59:59;;;;;;;7.18;4.63;;;;;;;;;;4983835;28;20034;-72
2021/11/23 13:02:51;;;;;;;6.72;3.95;;;;;;;;;;4970280;28;20510;-64
2021/11/23 13:05:39;;;;;;;7.85;4.88;;;;;;;;;;4985185;28;20564;-66
2021/11/23 13:08:24;;;;;;;7.20;4.70;;;;;;;;;;4963420;28;20069;-64
2021/11/23 13:11:15;;;;;;;8.25;4.35;;;;;;;;;;4983679;28;20389;-64
2021/11/23 13:14:19;;;;;;;7.43;4.32;;;;;;;;;;4990845;28;20518;-65
2021/11/23 13:17:04;;;;;;;6.72;4.32;;;;;;;;;;4969270;28;20030;-70
2021/11/23 13:19:51;;;;;;;7.20;4.72;;;;;;;;;;4984821;28;20022;-70
2021/11/23 13:22:38;;;;;;;8.63;4.53;;;;;;;;;;4981403;28;20114;-71
2021/11/23 13:25:28;;;;;;;7.28;4.70;;;;;;;;;;4986129;28;20102;-73
2021/11/23 13:28:14;;;;;;;6.72;4.60;;;;;;;;;;4989057;28;20129;-71
2021/11/23 13:31:00;;;;;;;9.00;5.15;;;;;;;;;;4984814;28;20101;-73
2021/11/23 13:33:53;;;;;;;9.20;5.40;;;;;;;;;;4988698;28;20553;-65
2021/11/23 13:36:41;;;;;;;12.10;5.43;;;;;;;;;;4986807;28;20038;-69
2021/11/23 13:39:26;;;;;;;9.68;5.65;;;;;;;;;;4984335;28;20030;-66
2021/11/23 13:42:18;;;;;;;9.27;6.13;;;;;;;;;;4986875;28;20042;-70
2021/11/23 13:45:11;;;;;;;9.63;5.57;;;;;;;;;;4987525;28;20031;-67
2021/11/23 13:48:11;;;;;;;9.13;5.28;;;;;;;;;;4979838;28;20129;-68
2021/11/23 13:50:56;;;;;;;;;;;;;;;;;;5001753;28;20451;-66
2021/11/23 13:53:54;;;;;;;9.63;5.90;;;;;;;;;;4973599;28;19918;-69
2021/11/23 13:56:51;;;;;;;11.23;6.15;;;;;;;;;;4985539;28;20034;-69
2021/11/23 13:59:36;;;;;;;9.02;6.57;;;;;;;;;;4985028;28;20062;-67
2021/11/23 14:02:42;;;;;;;10.57;6.00;;;;;;;;;;4987062;28;20030;-67
2021/11/23 14:05:47;;;;;;;9.68;5.88;;;;;;;;;;4982293;28;20076;-65
2021/11/23 14:08:34;;;;;;;8.18;5.72;;;;;;;;;;4986381;28;20042;-65
2021/11/23 14:11:20;;;;;;;9.02;6.00;;;;;;;;;;4987743;28;20018;-61
2021/11/23 14:14:06;;;;;;;11.13;6.10;;;;;;;;;;4987617;28;20038;-64
2021/11/23 14:16:53;;;;;;;11.93;5.40;;;;;;;;;;4972271;28;20031;-67
2021/11/23 14:19:40;;;;;;;12.95;6.18;;;;;;;;;;5002612;28;20037;-64
2021/11/23 14:22:37;;;;;;;11.27;6.50;;;;;;;;;;4982694;28;20122;-64
2021/11/23 14:25:24;;;;;;;9.55;6.20;;;;;;;;;;4983738;28;20492;-63
2021/11/23 14:28:10;;;;;;;14.50;8.90;;;;;;;;;;4980028;28;20038;-67
2021/11/23 14:30:55;;;;;;;10.55;6.55;;;;;;;;;;4979002;28;20052;-71
2021/11/23 14:33:40;;;;;;;8.38;5.47;;;;;;;;;;4983298;28;20108;-73
2021/11/23 14:36:26;;;;;;;9.93;5.78;;;;;;;;;;4982615;28;20546;-73
2021/11/23 14:39:12;;;;;;;9.88;4.95;;;;;;;;;;4997358;28;20079;-72
2021/11/23 14:41:57;;;;;;;9.90;6.45;;;;;;;;;;4986467;28;20034;-73
2021/11/23 14:44:42;;;;;;;8.73;4.63;;;;;;;;;;4985963;28;20030;-73
2021/11/23 14:47:27;;;;;;;11.77;4.60;;;;;;;;;;4985654;28;20497;-66
2021/11/23 14:50:13;;;;;;;6.47;3.72;;;;;;;;;;4981090;28;20189;-65
2021/11/23 14:53:00;;;;;;;5.70;3.42;;;;;;;;;;4981896;28;20478;-66
2021/11/23 14:55:46;;;;;;;5.32;3.55;;;;;;;;;;4985902;28;20118;-66
2021/11/23 14:58:31;;;;;;;5.88;3.38;;;;;;;;;;4970200;28;20038;-66
2021/11/23 15:01:16;;;;;;;6.95;4.25;;;;;;;;;;4984226;28;20072;-68
2021/11/23 15:04:02;;;;;;;7.05;4.63;;;;;;;;;;4986168;28;20030;-66
2021/11/23 15:06:47;;;;;;;9.45;3.72;;;;;;;;;;4986299;28;20497;-67
2021/11/23 15:09:32;;;;;;;9.45;3.67;;;;;;;;;;4980512;28;20057;-66
2021/11/23 15:12:19;;;;;;;8.70;4.28;;;;;;;;;;4984903;28;20026;-66
2021/11/23 15:15:05;;;;;;;7.93;3.75;;;;;;;;;;4982436;28;20038;-66
2021/11/23 15:17:51;;;;;;;6.88;3.00;;;;;;;;;;4962282;28;20038;-64
2021/11/23 15:20:36;;;;;;;6.90;3.65;;;;;;;;;;4982901;28;20058;-64
2021/11/23 15:23:22;;;;;;;6.70;3.75;;;;;;;;;;4974799;28;20149;-64
2021/11/23 15:26:07;;;;;;;6.45;3.45;;;;;;;;;;4984586;28;20030;-73
2021/11/23 15:28:52;;;;;;;8.27;4.40;;;;;;;;;;4987186;28;20037;-62
2021/11/23 15:31:38;;;;;;;9.65;4.75;;;;;;;;;;4980605;28;20037;-64
2021/11/23 15:34:23;;;;;;;6.50;3.90;;;;;;;;;;4978766;28;20031;-65
2021/11/23 15:37:08;;;;;;;4.80;3.60;;;;;;;;;;4985598;28;20046;-65
2021/11/23 15:39:53;;;;;;;8.52;3.95;;;;;;;;;;4983377;28;20056;-64
2021/11/23 15:42:39;;;;;;;10.77;4.13;;;;;;;;;;4984184;28;20038;-70
2021/11/23 15:45:24;;;;;;;8.60;4.22;;;;;;;;;;4970494;28;20041;-75
2021/11/23 15:48:11;;;;;;;7.43;4.00;;;;;;;;;;4985540;28;20076;-73
2021/11/23 15:50:57;;;;;;;7.00;3.20;;;;;;;;;;4984270;28;20030;-73
2021/11/23 15:53:42;;;;;;;6.70;3.88;;;;;;;;;;4986170;28;20489;-72
2021/11/23 15:56:28;;;;;;;5.93;3.22;;;;;;;;;;4993183;28;20097;-74
2021/11/23 15:59:13;;;;;;;11.65;4.70;;;;;;;;;;4996037;28;20034;-70
2021/11/23 16:01:58;;;;;;;6.60;4.40;;;;;;;;;;4983351;28;20034;-75
2021/11/23 16:04:44;;;;;;;7.47;4.38;;;;;;;;;;4964575;28;20505;-71
2021/11/23 16:07:29;;;;;;;10.02;4.53;;;;;;;;;;4966105;28;20026;-68
2021/11/23 16:10:14;;;;;;;9.55;4.13;;;;;;;;;;4980411;28;20470;-67
2021/11/23 16:13:00;;;;;;;10.00;4.80;;;;;;;;;;4985002;28;20038;-69
2021/11/23 16:15:46;;;;;;;16.33;5.22;;;;;;;;;;4979308;28;20125;-68
2021/11/23 16:18:31;;;;;;;11.40;4.50;;;;;;;;;;4982447;28;20030;-74
2021/11/23 16:21:22;;;;;;;10.20;5.25;;;;;;;;;;4972886;28;20026;-64
2021/11/23 16:24:07;;;;;;;9.20;5.18;;;;;;;;;;4970488;28;20058;-74
2021/11/23 16:26:52;;;;;;;11.77;5.00;;;;;;;;;;4965991;28;20374;-69